sensor_id;sensor_type;location;lat;lon;timestamp;P1;durP1;ratioP1;P2;durP2;ratioP2
38397;SDS011;24179;52.094;4.408;2023-12-28T00:02:02;284.27;;;72.70;;
38397;SDS011;24179;52.094;4.408;2023-12-28T00:05:03;287.97;;;73.57;;
38397;SDS011;24179;52.094;4.408;2023-12-28T00:08:04;285.42;;;72.63;;
38397;SDS011;24179;52.094;4.408;2023-12-28T00:11:04;287.07;;;72.50;;
38397;SDS011;24179;52.094;4.408;2023-12-28T00:14:05;291.03;;;74.00;;
38397;SDS011;24179;52.094;4.408;2023-12-28T00:17:06;289.52;;;73.65;;
38397;SDS011;24179;52.094;4.408;2023-12-28T00:20:06;291.13;;;73.23;;
38397;SDS011;24179;52.094;4.408;2023-12-28T00:23:07;294.17;;;74.80;;
38397;SDS011;24179;52.094;4.408;2023-12-28T00:26:08;294.23;;;73.97;;
38397;SDS011;24179;52.094;4.408;2023-12-28T00:29:08;294.87;;;73.40;;
38397;SDS011;24179;52.094;4.408;2023-12-28T00:32:09;298.37;;;74.67;;
38397;SDS011;24179;52.094;4.408;2023-12-28T00:35:10;298.23;;;75.50;;
38397;SDS011;24179;52.094;4.408;2023-12-28T00:38:11;299.00;;;75.47;;
38397;SDS011;24179;52.094;4.408;2023-12-28T00:41:11;300.53;;;74.80;;
38397;SDS011;24179;52.094;4.408;2023-12-28T00:44:12;306.20;;;76.70;;
38397;SDS011;24179;52.094;4.408;2023-12-28T00:47:13;304.33;;;75.87;;
38397;SDS011;24179;52.094;4.408;2023-12-28T00:50:13;308.33;;;76.87;;
38397;SDS011;24179;52.094;4.408;2023-12-28T00:53:16;115.20;;;108.43;;
38397;SDS011;24179;52.094;4.408;2023-12-28T00:56:17;115.57;;;108.37;;
38397;SDS011;24179;52.094;4.408;2023-12-28T00:59:18;124.90;;;116.83;;
38397;SDS011;24179;52.094;4.408;2023-12-28T01:02:18;114.90;;;107.63;;
38397;SDS011;24179;52.094;4.408;2023-12-28T01:05:19;120.20;;;112.43;;
38397;SDS011;24179;52.094;4.408;2023-12-28T01:08:21;121.50;;;113.55;;
38397;SDS011;24179;52.094;4.408;2023-12-28T01:11:21;124.53;;;116.17;;
38397;SDS011;24179;52.094;4.408;2023-12-28T01:14:22;122.80;;;114.77;;
38397;SDS011;24179;52.094;4.408;2023-12-28T01:17:22;121.43;;;113.60;;
38397;SDS011;24179;52.094;4.408;2023-12-28T01:20:23;124.80;;;116.67;;
38397;SDS011;24179;52.094;4.408;2023-12-28T01:23:23;127.43;;;119.10;;
38397;SDS011;24179;52.094;4.408;2023-12-28T01:26:24;126.70;;;118.37;;
38397;SDS011;24179;52.094;4.408;2023-12-28T01:29:25;130.83;;;122.03;;
38397;SDS011;24179;52.094;4.408;2023-12-28T01:32:25;125.63;;;117.50;;
38397;SDS011;24179;52.094;4.408;2023-12-28T01:35:26;126.53;;;118.33;;
38397;SDS011;24179;52.094;4.408;2023-12-28T01:38:26;122.93;;;114.97;;
38397;SDS011;24179;52.094;4.408;2023-12-28T01:41:27;126.67;;;118.40;;
38397;SDS011;24179;52.094;4.408;2023-12-28T01:44:27;130.20;;;121.70;;
38397;SDS011;24179;52.094;4.408;2023-12-28T01:47:28;126.57;;;118.30;;
38397;SDS011;24179;52.094;4.408;2023-12-28T01:50:30;130.70;;;122.20;;
38397;SDS011;24179;52.094;4.408;2023-12-28T01:56:31;124.70;;;116.87;;
38397;SDS011;24179;52.094;4.408;2023-12-28T01:59:32;129.17;;;120.73;;
38397;SDS011;24179;52.094;4.408;2023-12-28T02:02:34;131.98;;;123.38;;
38397;SDS011;24179;52.094;4.408;2023-12-28T02:05:36;128.95;;;120.65;;
38397;SDS011;24179;52.094;4.408;2023-12-28T02:08:36;130.00;;;121.60;;
38397;SDS011;24179;52.094;4.408;2023-12-28T02:11:37;129.63;;;121.23;;
38397;SDS011;24179;52.094;4.408;2023-12-28T02:14:37;128.33;;;120.23;;
38397;SDS011;24179;52.094;4.408;2023-12-28T02:17:42;129.90;;;121.60;;
38397;SDS011;24179;52.094;4.408;2023-12-28T02:20:48;133.18;;;124.65;;
38397;SDS011;24179;52.094;4.408;2023-12-28T02:26:50;130.73;;;122.53;;
38397;SDS011;24179;52.094;4.408;2023-12-28T02:29:50;132.17;;;123.67;;
38397;SDS011;24179;52.094;4.408;2023-12-28T02:32:56;127.50;;;119.43;;
38397;SDS011;24179;52.094;4.408;2023-12-28T02:36:10;133.50;;;124.88;;
38397;SDS011;24179;52.094;4.408;2023-12-28T02:39:14;136.73;;;127.78;;
38397;SDS011;24179;52.094;4.408;2023-12-28T02:42:16;130.07;;;121.80;;
38397;SDS011;24179;52.094;4.408;2023-12-28T02:45:17;133.43;;;124.93;;
38397;SDS011;24179;52.094;4.408;2023-12-28T02:48:18;129.18;;;121.18;;
38397;SDS011;24179;52.094;4.408;2023-12-28T02:51:19;132.47;;;124.03;;
38397;SDS011;24179;52.094;4.408;2023-12-28T02:54:19;135.23;;;126.40;;
38397;SDS011;24179;52.094;4.408;2023-12-28T02:57:20;133.57;;;125.10;;
38397;SDS011;24179;52.094;4.408;2023-12-28T03:00:20;132.33;;;124.03;;
38397;SDS011;24179;52.094;4.408;2023-12-28T03:03:21;133.43;;;124.97;;
38397;SDS011;24179;52.094;4.408;2023-12-28T03:06:22;135.57;;;126.90;;
38397;SDS011;24179;52.094;4.408;2023-12-28T03:09:22;137.90;;;128.80;;
38397;SDS011;24179;52.094;4.408;2023-12-28T03:12:23;135.60;;;127.13;;
38397;SDS011;24179;52.094;4.408;2023-12-28T03:15:24;135.23;;;126.67;;
38397;SDS011;24179;52.094;4.408;2023-12-28T03:18:24;135.43;;;126.90;;
38397;SDS011;24179;52.094;4.408;2023-12-28T03:21:25;133.03;;;124.70;;
38397;SDS011;24179;52.094;4.408;2023-12-28T03:24:25;133.43;;;124.67;;
38397;SDS011;24179;52.094;4.408;2023-12-28T03:27:26;135.37;;;126.77;;
38397;SDS011;24179;52.094;4.408;2023-12-28T03:30:26;135.27;;;126.67;;
38397;SDS011;24179;52.094;4.408;2023-12-28T03:33:27;138.30;;;129.53;;
38397;SDS011;24179;52.094;4.408;2023-12-28T03:36:28;134.30;;;125.67;;
38397;SDS011;24179;52.094;4.408;2023-12-28T03:39:28;133.80;;;125.60;;
38397;SDS011;24179;52.094;4.408;2023-12-28T03:42:29;135.23;;;126.77;;
38397;SDS011;24179;52.094;4.408;2023-12-28T03:45:29;134.87;;;126.50;;
38397;SDS011;24179;52.094;4.408;2023-12-28T03:48:30;138.10;;;129.03;;
38397;SDS011;24179;52.094;4.408;2023-12-28T03:51:30;137.13;;;128.47;;
38397;SDS011;24179;52.094;4.408;2023-12-28T03:54:31;136.37;;;127.80;;
38397;SDS011;24179;52.094;4.408;2023-12-28T03:57:31;138.10;;;129.30;;
38397;SDS011;24179;52.094;4.408;2023-12-28T04:00:32;137.13;;;128.63;;
38397;SDS011;24179;52.094;4.408;2023-12-28T04:03:35;130.07;;;122.28;;
38397;SDS011;24179;52.094;4.408;2023-12-28T04:06:36;138.13;;;129.57;;
38397;SDS011;24179;52.094;4.408;2023-12-28T04:09:37;139.48;;;130.65;;
38397;SDS011;24179;52.094;4.408;2023-12-28T04:12:38;136.67;;;128.03;;
38397;SDS011;24179;52.094;4.408;2023-12-28T04:15:41;130.90;;;123.20;;
38397;SDS011;24179;52.094;4.408;2023-12-28T04:18:43;144.98;;;135.73;;
38397;SDS011;24179;52.094;4.408;2023-12-28T04:21:44;133.45;;;125.45;;
38397;SDS011;24179;52.094;4.408;2023-12-28T04:24:44;133.53;;;125.50;;
38397;SDS011;24179;52.094;4.408;2023-12-28T04:27:45;140.27;;;131.47;;
38397;SDS011;24179;52.094;4.408;2023-12-28T04:30:45;137.87;;;129.43;;
38397;SDS011;24179;52.094;4.408;2023-12-28T04:33:46;136.67;;;128.40;;
38397;SDS011;24179;52.094;4.408;2023-12-28T04:36:46;135.33;;;126.93;;
38397;SDS011;24179;52.094;4.408;2023-12-28T04:39:48;137.65;;;129.32;;
38397;SDS011;24179;52.094;4.408;2023-12-28T04:42:49;137.20;;;129.00;;
38397;SDS011;24179;52.094;4.408;2023-12-28T04:45:50;137.87;;;129.60;;
38397;SDS011;24179;52.094;4.408;2023-12-28T04:48:51;138.57;;;129.85;;
38397;SDS011;24179;52.094;4.408;2023-12-28T04:51:51;141.20;;;132.53;;
38397;SDS011;24179;52.094;4.408;2023-12-28T04:54:52;142.57;;;133.50;;
38397;SDS011;24179;52.094;4.408;2023-12-28T04:57:52;142.03;;;133.17;;
38397;SDS011;24179;52.094;4.408;2023-12-28T05:00:53;139.07;;;130.33;;
38397;SDS011;24179;52.094;4.408;2023-12-28T05:03:53;139.83;;;131.43;;
38397;SDS011;24179;52.094;4.408;2023-12-28T05:06:54;140.87;;;132.07;;
38397;SDS011;24179;52.094;4.408;2023-12-28T05:09:54;141.80;;;132.97;;
38397;SDS011;24179;52.094;4.408;2023-12-28T05:12:55;138.37;;;129.77;;
38397;SDS011;24179;52.094;4.408;2023-12-28T05:15:56;141.00;;;132.60;;
38397;SDS011;24179;52.094;4.408;2023-12-28T05:18:56;144.73;;;135.80;;
38397;SDS011;24179;52.094;4.408;2023-12-28T05:21:57;140.63;;;132.07;;
38397;SDS011;24179;52.094;4.408;2023-12-28T05:24:57;145.23;;;136.17;;
38397;SDS011;24179;52.094;4.408;2023-12-28T05:27:58;138.27;;;129.90;;
38397;SDS011;24179;52.094;4.408;2023-12-28T05:30:58;138.77;;;130.47;;
38397;SDS011;24179;52.094;4.408;2023-12-28T05:33:59;142.53;;;133.83;;
38397;SDS011;24179;52.094;4.408;2023-12-28T05:36:59;145.17;;;136.27;;
38397;SDS011;24179;52.094;4.408;2023-12-28T05:40:00;141.93;;;133.07;;
38397;SDS011;24179;52.094;4.408;2023-12-28T05:43:01;140.48;;;131.82;;
38397;SDS011;24179;52.094;4.408;2023-12-28T05:46:01;139.57;;;131.07;;
38397;SDS011;24179;52.094;4.408;2023-12-28T05:49:02;144.53;;;135.47;;
38397;SDS011;24179;52.094;4.408;2023-12-28T05:52:03;141.87;;;133.27;;
38397;SDS011;24179;52.094;4.408;2023-12-28T05:55:04;143.27;;;134.65;;
38397;SDS011;24179;52.094;4.408;2023-12-28T05:58:05;139.95;;;131.25;;
38397;SDS011;24179;52.094;4.408;2023-12-28T06:01:05;142.00;;;133.10;;
38397;SDS011;24179;52.094;4.408;2023-12-28T06:04:06;146.93;;;137.80;;
38397;SDS011;24179;52.094;4.408;2023-12-28T06:07:06;139.20;;;131.00;;
38397;SDS011;24179;52.094;4.408;2023-12-28T06:10:07;142.30;;;133.57;;
38397;SDS011;24179;52.094;4.408;2023-12-28T06:13:08;141.15;;;132.80;;
38397;SDS011;24179;52.094;4.408;2023-12-28T06:16:08;143.23;;;134.30;;
38397;SDS011;24179;52.094;4.408;2023-12-28T06:19:09;145.07;;;135.90;;
38397;SDS011;24179;52.094;4.408;2023-12-28T06:25:11;145.13;;;135.97;;
38397;SDS011;24179;52.094;4.408;2023-12-28T06:28:12;142.02;;;133.40;;
38397;SDS011;24179;52.094;4.408;2023-12-28T06:31:13;143.90;;;135.43;;
38397;SDS011;24179;52.094;4.408;2023-12-28T06:34:13;141.40;;;132.73;;
38397;SDS011;24179;52.094;4.408;2023-12-28T06:37:14;141.20;;;132.93;;
38397;SDS011;24179;52.094;4.408;2023-12-28T06:40:15;136.52;;;128.50;;
38397;SDS011;24179;52.094;4.408;2023-12-28T06:43:15;143.63;;;134.97;;
38397;SDS011;24179;52.094;4.408;2023-12-28T06:46:16;148.60;;;138.97;;
38397;SDS011;24179;52.094;4.408;2023-12-28T06:49:17;146.77;;;138.00;;
38397;SDS011;24179;52.094;4.408;2023-12-28T06:52:18;148.00;;;139.00;;
38397;SDS011;24179;52.094;4.408;2023-12-28T06:55:18;143.07;;;134.50;;
38397;SDS011;24179;52.094;4.408;2023-12-28T06:58:19;143.57;;;134.80;;
38397;SDS011;24179;52.094;4.408;2023-12-28T07:01:19;141.20;;;132.80;;
38397;SDS011;24179;52.094;4.408;2023-12-28T07:04:20;143.30;;;134.77;;
38397;SDS011;24179;52.094;4.408;2023-12-28T07:07:21;143.40;;;134.33;;
38397;SDS011;24179;52.094;4.408;2023-12-28T07:10:21;144.93;;;136.17;;
38397;SDS011;24179;52.094;4.408;2023-12-28T07:13:22;149.07;;;140.03;;
38397;SDS011;24179;52.094;4.408;2023-12-28T07:16:22;144.60;;;135.93;;
38397;SDS011;24179;52.094;4.408;2023-12-28T07:19:23;144.70;;;136.20;;
38397;SDS011;24179;52.094;4.408;2023-12-28T07:22:24;148.27;;;139.13;;
38397;SDS011;24179;52.094;4.408;2023-12-28T07:25:24;144.53;;;135.73;;
38397;SDS011;24179;52.094;4.408;2023-12-28T07:28:25;153.43;;;143.30;;
38397;SDS011;24179;52.094;4.408;2023-12-28T07:31:26;140.20;;;131.90;;
38397;SDS011;24179;52.094;4.408;2023-12-28T07:34:28;147.23;;;138.38;;
38397;SDS011;24179;52.094;4.408;2023-12-28T07:37:28;147.93;;;138.93;;
38397;SDS011;24179;52.094;4.408;2023-12-28T07:40:29;141.70;;;133.47;;
38397;SDS011;24179;52.094;4.408;2023-12-28T07:43:29;144.13;;;135.73;;
38397;SDS011;24179;52.094;4.408;2023-12-28T07:46:30;146.83;;;137.90;;
38397;SDS011;24179;52.094;4.408;2023-12-28T07:49:30;146.03;;;137.27;;
38397;SDS011;24179;52.094;4.408;2023-12-28T07:52:31;166.05;;;149.68;;
38397;SDS011;24179;52.094;4.408;2023-12-28T07:55:32;143.73;;;135.30;;
38397;SDS011;24179;52.094;4.408;2023-12-28T07:58:32;148.40;;;139.53;;
38397;SDS011;24179;52.094;4.408;2023-12-28T08:01:33;148.80;;;139.97;;
38397;SDS011;24179;52.094;4.408;2023-12-28T08:04:33;148.97;;;140.40;;
38397;SDS011;24179;52.094;4.408;2023-12-28T08:07:34;145.57;;;136.93;;
38397;SDS011;24179;52.094;4.408;2023-12-28T08:10:35;148.00;;;138.77;;
38397;SDS011;24179;52.094;4.408;2023-12-28T08:13:36;147.80;;;139.07;;
38397;SDS011;24179;52.094;4.408;2023-12-28T08:16:36;149.77;;;140.67;;
38397;SDS011;24179;52.094;4.408;2023-12-28T08:19:37;150.17;;;141.27;;
38397;SDS011;24179;52.094;4.408;2023-12-28T08:22:38;145.20;;;137.00;;
38397;SDS011;24179;52.094;4.408;2023-12-28T08:25:38;147.93;;;139.10;;
38397;SDS011;24179;52.094;4.408;2023-12-28T08:28:39;151.10;;;142.10;;
38397;SDS011;24179;52.094;4.408;2023-12-28T08:31:40;146.35;;;137.48;;
38397;SDS011;24179;52.094;4.408;2023-12-28T08:34:40;147.20;;;138.47;;
38397;SDS011;24179;52.094;4.408;2023-12-28T08:37:41;154.27;;;144.07;;
38397;SDS011;24179;52.094;4.408;2023-12-28T08:40:42;149.37;;;139.87;;
38397;SDS011;24179;52.094;4.408;2023-12-28T08:43:44;147.65;;;138.20;;
38397;SDS011;24179;52.094;4.408;2023-12-28T08:46:45;158.15;;;148.55;;
38397;SDS011;24179;52.094;4.408;2023-12-28T08:49:45;147.05;;;138.18;;
38397;SDS011;24179;52.094;4.408;2023-12-28T08:52:46;145.77;;;136.90;;
38397;SDS011;24179;52.094;4.408;2023-12-28T08:55:47;154.43;;;145.00;;
38397;SDS011;24179;52.094;4.408;2023-12-28T08:58:47;154.80;;;145.37;;
38397;SDS011;24179;52.094;4.408;2023-12-28T09:01:51;149.00;;;140.07;;
38397;SDS011;24179;52.094;4.408;2023-12-28T09:04:53;152.32;;;142.48;;
38397;SDS011;24179;52.094;4.408;2023-12-28T09:07:54;147.70;;;139.00;;
38397;SDS011;24179;52.094;4.408;2023-12-28T09:10:54;146.30;;;137.20;;
38397;SDS011;24179;52.094;4.408;2023-12-28T09:13:55;158.90;;;148.03;;
38397;SDS011;24179;52.094;4.408;2023-12-28T09:16:55;156.87;;;146.40;;
38397;SDS011;24179;52.094;4.408;2023-12-28T09:19:57;148.63;;;139.63;;
38397;SDS011;24179;52.094;4.408;2023-12-28T09:23:01;149.10;;;140.20;;
38397;SDS011;24179;52.094;4.408;2023-12-28T09:26:02;151.77;;;142.67;;
38397;SDS011;24179;52.094;4.408;2023-12-28T09:29:04;148.60;;;139.80;;
38397;SDS011;24179;52.094;4.408;2023-12-28T09:32:04;150.13;;;141.50;;
38397;SDS011;24179;52.094;4.408;2023-12-28T09:35:05;156.85;;;146.65;;
38397;SDS011;24179;52.094;4.408;2023-12-28T09:38:06;157.23;;;148.03;;
38397;SDS011;24179;52.094;4.408;2023-12-28T09:41:11;143.73;;;135.40;;
38397;SDS011;24179;52.094;4.408;2023-12-28T09:44:15;155.65;;;145.93;;
38397;SDS011;24179;52.094;4.408;2023-12-28T09:47:17;151.85;;;142.85;;
38397;SDS011;24179;52.094;4.408;2023-12-28T09:50:18;157.77;;;147.53;;
38397;SDS011;24179;52.094;4.408;2023-12-28T09:53:19;147.95;;;138.88;;
38397;SDS011;24179;52.094;4.408;2023-12-28T09:56:23;153.75;;;144.60;;
38397;SDS011;24179;52.094;4.408;2023-12-28T09:59:24;151.13;;;142.27;;
38397;SDS011;24179;52.094;4.408;2023-12-28T10:02:27;154.88;;;145.18;;
38397;SDS011;24179;52.094;4.408;2023-12-28T10:05:27;149.57;;;141.27;;
38397;SDS011;24179;52.094;4.408;2023-12-28T10:08:28;149.47;;;140.77;;
38397;SDS011;24179;52.094;4.408;2023-12-28T10:11:29;150.53;;;141.67;;
38397;SDS011;24179;52.094;4.408;2023-12-28T10:14:29;151.20;;;142.18;;
38397;SDS011;24179;52.094;4.408;2023-12-28T10:17:32;153.50;;;143.90;;
38397;SDS011;24179;52.094;4.408;2023-12-28T10:20:34;149.73;;;141.10;;
38397;SDS011;24179;52.094;4.408;2023-12-28T10:23:34;151.00;;;141.90;;
38397;SDS011;24179;52.094;4.408;2023-12-28T10:26:35;151.07;;;142.37;;
38397;SDS011;24179;52.094;4.408;2023-12-28T10:29:36;155.95;;;146.35;;
38397;SDS011;24179;52.094;4.408;2023-12-28T10:32:40;158.13;;;147.73;;
38397;SDS011;24179;52.094;4.408;2023-12-28T10:35:41;156.20;;;147.05;;
38397;SDS011;24179;52.094;4.408;2023-12-28T10:38:44;156.48;;;146.85;;
38397;SDS011;24179;52.094;4.408;2023-12-28T10:41:49;151.73;;;143.07;;
38397;SDS011;24179;52.094;4.408;2023-12-28T10:44:51;149.18;;;140.27;;
38397;SDS011;24179;52.094;4.408;2023-12-28T10:48:05;146.40;;;137.90;;
38397;SDS011;24179;52.094;4.408;2023-12-28T10:51:10;149.05;;;140.40;;
38397;SDS011;24179;52.094;4.408;2023-12-28T10:57:36;161.57;;;151.23;;
38397;SDS011;24179;52.094;4.408;2023-12-28T11:00:46;153.88;;;144.38;;
38397;SDS011;24179;52.094;4.408;2023-12-28T11:03:57;272.95;;;75.70;;
38397;SDS011;24179;52.094;4.408;2023-12-28T11:07:03;281.85;;;77.22;;
38397;SDS011;24179;52.094;4.408;2023-12-28T11:10:06;283.38;;;77.75;;
38397;SDS011;24179;52.094;4.408;2023-12-28T11:13:10;288.13;;;77.90;;
38397;SDS011;24179;52.094;4.408;2023-12-28T11:16:12;286.88;;;78.07;;
38397;SDS011;24179;52.094;4.408;2023-12-28T11:19:14;285.25;;;76.60;;
38397;SDS011;24179;52.094;4.408;2023-12-28T11:22:15;289.55;;;77.28;;
38397;SDS011;24179;52.094;4.408;2023-12-28T11:25:18;297.73;;;79.37;;
38397;SDS011;24179;52.094;4.408;2023-12-28T11:28:19;292.15;;;77.65;;
38397;SDS011;24179;52.094;4.408;2023-12-28T11:31:20;291.92;;;79.85;;
38397;SDS011;24179;52.094;4.408;2023-12-28T11:34:25;298.55;;;80.22;;
38397;SDS011;24179;52.094;4.408;2023-12-28T11:37:26;295.50;;;79.43;;
38397;SDS011;24179;52.094;4.408;2023-12-28T11:40:29;294.58;;;79.50;;
38397;SDS011;24179;52.094;4.408;2023-12-28T11:43:34;292.17;;;78.60;;
38397;SDS011;24179;52.094;4.408;2023-12-28T11:46:35;300.88;;;79.55;;
38397;SDS011;24179;52.094;4.408;2023-12-28T11:49:39;299.60;;;79.43;;
38397;SDS011;24179;52.094;4.408;2023-12-28T11:52:40;334.58;;;117.43;;
38397;SDS011;24179;52.094;4.408;2023-12-28T11:55:41;303.63;;;81.30;;
38397;SDS011;24179;52.094;4.408;2023-12-28T11:58:42;294.03;;;77.40;;
38397;SDS011;24179;52.094;4.408;2023-12-28T12:01:49;306.25;;;81.43;;
38397;SDS011;24179;52.094;4.408;2023-12-28T12:04:53;301.85;;;80.35;;
38397;SDS011;24179;52.094;4.408;2023-12-28T12:07:54;305.27;;;80.25;;
38397;SDS011;24179;52.094;4.408;2023-12-28T12:11:01;304.17;;;80.67;;
38397;SDS011;24179;52.094;4.408;2023-12-28T12:14:08;311.10;;;81.68;;
38397;SDS011;24179;52.094;4.408;2023-12-28T12:17:09;308.25;;;80.40;;
38397;SDS011;24179;52.094;4.408;2023-12-28T12:20:10;309.27;;;81.33;;
38397;SDS011;24179;52.094;4.408;2023-12-28T12:23:11;310.07;;;81.87;;
38397;SDS011;24179;52.094;4.408;2023-12-28T12:26:13;308.98;;;81.57;;
38397;SDS011;24179;52.094;4.408;2023-12-28T12:29:13;311.60;;;82.43;;
38397;SDS011;24179;52.094;4.408;2023-12-28T12:32:14;315.67;;;83.93;;
38397;SDS011;24179;52.094;4.408;2023-12-28T12:35:15;314.40;;;81.33;;
38397;SDS011;24179;52.094;4.408;2023-12-28T12:38:17;315.10;;;81.63;;
38397;SDS011;24179;52.094;4.408;2023-12-28T12:41:18;324.43;;;84.33;;
38397;SDS011;24179;52.094;4.408;2023-12-28T12:44:20;320.90;;;84.47;;
38397;SDS011;24179;52.094;4.408;2023-12-28T12:47:20;322.33;;;83.33;;
38397;SDS011;24179;52.094;4.408;2023-12-28T12:50:22;322.48;;;84.38;;
38397;SDS011;24179;52.094;4.408;2023-12-28T12:53:23;332.60;;;89.33;;
38397;SDS011;24179;52.094;4.408;2023-12-28T12:56:24;336.73;;;113.50;;
38397;SDS011;24179;52.094;4.408;2023-12-28T12:59:27;340.33;;;115.95;;
38397;SDS011;24179;52.094;4.408;2023-12-28T13:02:28;345.07;;;118.10;;
38397;SDS011;24179;52.094;4.408;2023-12-28T13:05:28;348.77;;;117.53;;
38397;SDS011;24179;52.094;4.408;2023-12-28T13:08:29;348.63;;;112.53;;
38397;SDS011;24179;52.094;4.408;2023-12-28T13:11:30;338.30;;;108.13;;
38397;SDS011;24179;52.094;4.408;2023-12-28T13:14:30;344.40;;;106.13;;
38397;SDS011;24179;52.094;4.408;2023-12-28T13:17:31;342.17;;;103.53;;
38397;SDS011;24179;52.094;4.408;2023-12-28T13:20:31;335.73;;;100.37;;
38397;SDS011;24179;52.094;4.408;2023-12-28T13:23:32;335.07;;;96.97;;
38397;SDS011;24179;52.094;4.408;2023-12-28T13:26:33;345.47;;;99.37;;
38397;SDS011;24179;52.094;4.408;2023-12-28T13:29:33;341.03;;;99.27;;
38397;SDS011;24179;52.094;4.408;2023-12-28T13:32:34;339.00;;;94.67;;
38397;SDS011;24179;52.094;4.408;2023-12-28T13:35:34;331.47;;;90.87;;
38397;SDS011;24179;52.094;4.408;2023-12-28T13:38:35;345.63;;;94.30;;
38397;SDS011;24179;52.094;4.408;2023-12-28T13:41:35;339.30;;;95.97;;
38397;SDS011;24179;52.094;4.408;2023-12-28T13:44:36;340.87;;;94.87;;
38397;SDS011;24179;52.094;4.408;2023-12-28T13:47:37;345.37;;;91.70;;
38397;SDS011;24179;52.094;4.408;2023-12-28T13:50:37;337.00;;;87.77;;
38397;SDS011;24179;52.094;4.408;2023-12-28T13:53:38;340.67;;;88.37;;
38397;SDS011;24179;52.094;4.408;2023-12-28T13:56:40;343.48;;;88.53;;
38397;SDS011;24179;52.094;4.408;2023-12-28T14:02:42;338.17;;;88.03;;
38397;SDS011;24179;52.094;4.408;2023-12-28T14:08:44;338.70;;;87.47;;
38397;SDS011;24179;52.094;4.408;2023-12-28T14:11:46;336.17;;;86.22;;
38397;SDS011;24179;52.094;4.408;2023-12-28T14:14:47;339.00;;;85.57;;
38397;SDS011;24179;52.094;4.408;2023-12-28T14:17:47;338.50;;;85.33;;
38397;SDS011;24179;52.094;4.408;2023-12-28T14:20:48;336.77;;;84.37;;
38397;SDS011;24179;52.094;4.408;2023-12-28T14:23:49;332.63;;;83.50;;
38397;SDS011;24179;52.094;4.408;2023-12-28T14:26:54;330.20;;;83.57;;
38397;SDS011;24179;52.094;4.408;2023-12-28T14:29:56;341.40;;;86.28;;
38397;SDS011;24179;52.094;4.408;2023-12-28T14:32:57;322.67;;;80.03;;
38397;SDS011;24179;52.094;4.408;2023-12-28T14:35:58;338.35;;;86.78;;
38397;SDS011;24179;52.094;4.408;2023-12-28T14:39:00;339.60;;;85.53;;
38397;SDS011;24179;52.094;4.408;2023-12-28T14:42:02;331.05;;;83.18;;
38397;SDS011;24179;52.094;4.408;2023-12-28T14:45:04;339.25;;;85.82;;
38397;SDS011;24179;52.094;4.408;2023-12-28T14:48:05;335.05;;;85.13;;
38397;SDS011;24179;52.094;4.408;2023-12-28T14:51:06;338.42;;;87.68;;
38397;SDS011;24179;52.094;4.408;2023-12-28T14:54:06;339.53;;;86.47;;
38397;SDS011;24179;52.094;4.408;2023-12-28T14:57:07;335.87;;;85.03;;
38397;SDS011;24179;52.094;4.408;2023-12-28T15:00:09;337.85;;;85.22;;
38397;SDS011;24179;52.094;4.408;2023-12-28T15:03:10;341.00;;;84.65;;
38397;SDS011;24179;52.094;4.408;2023-12-28T15:09:12;330.90;;;82.80;;
38397;SDS011;24179;52.094;4.408;2023-12-28T15:12:12;331.57;;;83.20;;
38397;SDS011;24179;52.094;4.408;2023-12-28T15:15:13;343.13;;;86.15;;
38397;SDS011;24179;52.094;4.408;2023-12-28T15:18:14;335.35;;;85.65;;
38397;SDS011;24179;52.094;4.408;2023-12-28T15:21:17;328.50;;;82.35;;
38397;SDS011;24179;52.094;4.408;2023-12-28T15:24:18;341.98;;;85.38;;
38397;SDS011;24179;52.094;4.408;2023-12-28T15:27:19;336.92;;;85.53;;
38397;SDS011;24179;52.094;4.408;2023-12-28T15:30:19;328.50;;;82.57;;
38397;SDS011;24179;52.094;4.408;2023-12-28T15:33:20;337.37;;;84.83;;
38397;SDS011;24179;52.094;4.408;2023-12-28T15:36:22;334.00;;;83.38;;
38397;SDS011;24179;52.094;4.408;2023-12-28T15:39:22;335.83;;;86.50;;
38397;SDS011;24179;52.094;4.408;2023-12-28T15:42:24;338.33;;;85.05;;
38397;SDS011;24179;52.094;4.408;2023-12-28T15:45:24;336.47;;;84.90;;
38397;SDS011;24179;52.094;4.408;2023-12-28T15:48:27;340.23;;;85.50;;
38397;SDS011;24179;52.094;4.408;2023-12-28T15:51:27;336.57;;;85.70;;
38397;SDS011;24179;52.094;4.408;2023-12-28T15:54:28;338.77;;;86.23;;
38397;SDS011;24179;52.094;4.408;2023-12-28T15:57:28;334.80;;;84.17;;
38397;SDS011;24179;52.094;4.408;2023-12-28T16:00:29;335.47;;;83.70;;
38397;SDS011;24179;52.094;4.408;2023-12-28T16:03:29;339.00;;;86.70;;
38397;SDS011;24179;52.094;4.408;2023-12-28T16:06:30;332.73;;;85.30;;
38397;SDS011;24179;52.094;4.408;2023-12-28T16:09:31;329.73;;;82.75;;
38397;SDS011;24179;52.094;4.408;2023-12-28T16:12:32;339.50;;;84.95;;
38397;SDS011;24179;52.094;4.408;2023-12-28T16:15:33;341.57;;;86.93;;
38397;SDS011;24179;52.094;4.408;2023-12-28T16:18:37;332.65;;;83.65;;
38397;SDS011;24179;52.094;4.408;2023-12-28T16:21:39;343.63;;;85.47;;
38397;SDS011;24179;52.094;4.408;2023-12-28T16:24:39;331.50;;;83.90;;
38397;SDS011;24179;52.094;4.408;2023-12-28T16:27:40;337.17;;;86.20;;
38397;SDS011;24179;52.094;4.408;2023-12-28T16:30:40;341.23;;;86.73;;
38397;SDS011;24179;52.094;4.408;2023-12-28T16:33:41;333.63;;;83.57;;
38397;SDS011;24179;52.094;4.408;2023-12-28T16:36:42;339.07;;;85.13;;
38397;SDS011;24179;52.094;4.408;2023-12-28T16:39:42;343.53;;;88.07;;
38397;SDS011;24179;52.094;4.408;2023-12-28T16:42:43;332.17;;;84.37;;
38397;SDS011;24179;52.094;4.408;2023-12-28T16:45:44;335.80;;;83.93;;
38397;SDS011;24179;52.094;4.408;2023-12-28T16:48:44;333.90;;;84.83;;
38397;SDS011;24179;52.094;4.408;2023-12-28T16:51:46;329.20;;;81.03;;
38397;SDS011;24179;52.094;4.408;2023-12-28T16:54:48;329.77;;;83.28;;
38397;SDS011;24179;52.094;4.408;2023-12-28T16:57:48;339.27;;;84.90;;
38397;SDS011;24179;52.094;4.408;2023-12-28T17:00:49;338.93;;;86.07;;
38397;SDS011;24179;52.094;4.408;2023-12-28T17:03:49;336.83;;;85.83;;
38397;SDS011;24179;52.094;4.408;2023-12-28T17:06:50;331.08;;;84.30;;
38397;SDS011;24179;52.094;4.408;2023-12-28T17:09:51;333.77;;;85.07;;
38397;SDS011;24179;52.094;4.408;2023-12-28T17:12:52;336.33;;;85.33;;
38397;SDS011;24179;52.094;4.408;2023-12-28T17:15:53;335.20;;;84.53;;
38397;SDS011;24179;52.094;4.408;2023-12-28T17:18:53;328.30;;;83.47;;
38397;SDS011;24179;52.094;4.408;2023-12-28T17:21:54;336.10;;;85.82;;
38397;SDS011;24179;52.094;4.408;2023-12-28T17:25:41;336.83;;;84.30;;
38397;SDS011;24179;52.094;4.408;2023-12-28T17:28:23;335.05;;;85.05;;
38397;SDS011;24179;52.094;4.408;2023-12-28T17:31:24;337.23;;;84.40;;
38397;SDS011;24179;52.094;4.408;2023-12-28T17:34:29;335.77;;;83.80;;
38397;SDS011;24179;52.094;4.408;2023-12-28T17:37:29;339.80;;;87.03;;